Time;durP1;ratioP1;P1;durP2;ratioP2;P2;SDS_P1;SDS_P2;PMS_P1;PMS_P2;Temp;Humidity;BMP_temperature;BMP_pressure;BME280_temperature;BME280_humidity;BME280_pressure;Samples;Min_cycle;Max_cycle;Signal;HPM_P1;HPM_P2
2023/07/23 00:01:16;;;;;;;6.03;5.43;;;21.00;93.60;;;;;;4935460;28;21073;-78
2023/07/23 00:03:43;;;;;;;5.63;5.23;;;21.00;93.60;;;;;;4936399;28;20959;-77
2023/07/23 00:06:10;;;;;;;6.97;6.30;;;21.00;93.70;;;;;;4939965;28;20476;-77
2023/07/23 00:08:38;;;;;;;5.90;5.50;;;21.00;93.70;;;;;;4938695;28;20487;-80
2023/07/23 00:11:06;;;;;;;5.37;4.97;;;21.00;93.70;;;;;;4940309;28;20547;-77
2023/07/23 00:13:33;;;;;;;6.73;5.83;;;21.00;93.60;;;;;;4939500;28;20551;-79
2023/07/23 00:16:00;;;;;;;7.40;6.70;;;21.00;93.70;;;;;;4939828;28;20500;-77
2023/07/23 00:18:27;;;;;;;8.53;5.90;;;21.00;93.60;;;;;;4939302;28;20480;-77
2023/07/23 00:20:54;;;;;;;5.47;4.97;;;21.00;93.50;;;;;;4939369;28;20473;-77
2023/07/23 00:23:21;;;;;;;6.60;6.03;;;21.00;93.50;;;;;;4938692;28;20848;-77
2023/07/23 00:25:49;;;;;;;6.17;5.67;;;21.00;93.50;;;;;;4939525;28;20488;-77
2023/07/23 00:28:16;;;;;;;5.97;5.57;;;21.00;93.50;;;;;;4938873;28;20511;-77
2023/07/23 00:30:44;;;;;;;5.90;5.50;;;21.00;93.90;;;;;;4939223;28;20851;-77
2023/07/23 00:33:11;;;;;;;5.80;5.23;;;21.00;93.50;;;;;;4939336;28;20472;-79
2023/07/23 00:35:39;;;;;;;6.10;5.60;;;21.00;93.50;;;;;;4938545;28;20551;-79
2023/07/23 00:38:06;;;;;;;5.63;5.20;;;21.00;93.70;;;;;;4939181;28;20480;-76
2023/07/23 00:40:33;;;;;;;5.87;5.00;;;21.00;93.90;;;;;;4938691;28;20509;-76
2023/07/23 00:43:02;;;;;;;5.50;5.10;;;21.00;94.00;;;;;;4939337;28;20539;-80
2023/07/23 00:45:29;;;;;;;5.47;5.07;;;21.00;94.00;;;;;;4936188;28;20480;-76
2023/07/23 00:47:56;;;;;;;5.90;5.40;;;21.00;93.70;;;;;;4939460;28;20472;-76
2023/07/23 00:50:25;;;;;;;5.50;5.00;;;20.90;93.60;;;;;;4938679;28;20464;-79
2023/07/23 00:52:52;;;;;;;5.00;4.60;;;21.00;93.60;;;;;;4938902;28;20815;-79
2023/07/23 00:55:19;;;;;;;6.13;5.63;;;21.00;93.70;;;;;;4938651;28;20509;-77
2023/07/23 00:57:46;;;;;;;6.10;5.60;;;21.00;93.70;;;;;;4939132;28;20480;-80
2023/07/23 01:00:15;;;;;;;6.77;6.27;;;20.90;93.40;;;;;;4938244;28;20611;-77
2023/07/23 01:02:42;;;;;;;6.20;5.70;;;20.90;93.30;;;;;;4938213;28;20468;-77
2023/07/23 01:05:09;;;;;;;5.53;5.03;;;20.80;93.20;;;;;;4937519;28;20875;-78
2023/07/23 01:07:38;;;;;;;5.60;5.07;;;20.90;93.40;;;;;;4938350;28;20477;-80
2023/07/23 01:10:09;;;;;;;5.87;5.37;;;20.80;93.20;;;;;;4938206;28;20477;-77
2023/07/23 01:12:38;;;;;;;6.13;5.63;;;20.70;93.10;;;;;;4938719;28;20476;-77
2023/07/23 01:15:06;;;;;;;5.80;5.40;;;20.70;93.30;;;;;;4938552;28;20821;-77
2023/07/23 01:17:36;;;;;;;5.57;5.17;;;20.70;93.20;;;;;;4938003;28;20551;-78
2023/07/23 01:20:05;;;;;;;5.13;4.63;;;20.70;93.30;;;;;;4939638;28;20496;-77
2023/07/23 01:22:35;;;;;;;5.13;4.73;;;20.70;93.20;;;;;;4937943;28;20559;-80
2023/07/23 01:25:03;;;;;;;6.23;5.60;;;20.70;93.40;;;;;;4939951;28;20516;-77
2023/07/23 01:27:30;;;;;;;8.57;5.67;;;20.70;93.30;;;;;;4939103;28;20472;-76
2023/07/23 01:29:56;;;;;;;5.60;5.20;;;20.70;93.50;;;;;;4939848;28;20555;-78
2023/07/23 01:32:24;;;;;;;5.53;5.03;;;20.70;93.50;;;;;;4937548;28;20500;-76
2023/07/23 01:34:52;;;;;;;5.63;5.13;;;20.70;93.70;;;;;;4939244;28;20508;-76
2023/07/23 01:37:19;;;;;;;5.10;4.70;;;20.70;93.70;;;;;;4939332;28;20872;-79
2023/07/23 01:39:47;;;;;;;5.37;4.87;;;20.70;93.70;;;;;;4939109;28;20995;-76
2023/07/23 01:42:16;;;;;;;5.97;5.37;;;20.70;93.90;;;;;;4939689;28;20547;-77
2023/07/23 01:44:43;;;;;;;5.77;4.97;;;20.70;94.00;;;;;;4938970;28;20565;-77
2023/07/23 01:47:10;;;;;;;5.67;5.17;;;20.60;94.10;;;;;;4939582;28;20526;-77
2023/07/23 01:49:37;;;;;;;6.00;5.27;;;20.60;94.70;;;;;;4938006;28;20476;-77
2023/07/23 01:52:04;;;;;;;6.13;5.63;;;20.60;95.50;;;;;;4938609;28;20508;-80
2023/07/23 01:54:31;;;;;;;5.60;5.10;;;20.60;96.10;;;;;;4937889;28;20556;-80
2023/07/23 01:57:00;;;;;;;6.20;5.67;;;20.60;96.60;;;;;;4938096;28;20504;-79
2023/07/23 01:59:27;;;;;;;6.53;5.57;;;20.60;96.80;;;;;;4936560;28;20946;-79
2023/07/23 02:01:54;;;;;;;5.90;5.40;;;20.60;97.60;;;;;;4946360;28;20465;-80
2023/07/23 02:04:21;;;;;;;6.10;5.60;;;20.60;98.10;;;;;;4939033;28;20840;-80
2023/07/23 02:06:48;;;;;;;5.80;5.30;;;20.50;98.50;;;;;;4938706;28;20527;-77
2023/07/23 02:09:15;;;;;;;6.50;5.57;;;20.50;99.00;;;;;;4938689;28;20477;-77
2023/07/23 02:11:42;;;;;;;6.63;5.90;;;20.50;99.10;;;;;;4938343;28;20515;-77
2023/07/23 02:14:10;;;;;;;5.60;5.10;;;20.40;99.30;;;;;;4938860;28;20540;-80
2023/07/23 02:16:37;;;;;;;5.63;5.13;;;20.40;99.60;;;;;;4937769;28;20549;-80
2023/07/23 02:19:03;;;;;;;5.67;5.17;;;20.40;99.60;;;;;;4937262;28;20558;-80
2023/07/23 02:21:30;;;;;;;6.07;5.57;;;20.30;99.70;;;;;;4937243;28;20555;-79
2023/07/23 02:23:58;;;;;;;6.17;5.67;;;20.20;99.90;;;;;;4935833;28;20457;-79
2023/07/23 02:26:25;;;;;;;5.80;5.20;;;20.20;99.90;;;;;;4936461;28;20495;-79
2023/07/23 02:28:52;;;;;;;6.30;5.70;;;20.20;99.90;;;;;;4936619;28;20504;-78
2023/07/23 02:31:20;;;;;;;7.07;6.37;;;20.20;99.90;;;;;;4936908;28;20476;-80
2023/07/23 02:33:48;;;;;;;6.33;5.83;;;20.10;99.90;;;;;;4936273;28;20543;-80
2023/07/23 02:36:16;;;;;;;6.70;6.10;;;20.00;99.90;;;;;;4937255;28;20867;-81
2023/07/23 02:38:43;;;;;;;5.83;5.33;;;20.00;99.90;;;;;;4936538;28;20558;-80
2023/07/23 02:41:10;;;;;;;7.93;7.23;;;20.00;99.90;;;;;;4936433;28;20470;-81
2023/07/23 02:43:36;;;;;;;6.37;5.87;;;19.90;99.90;;;;;;4936391;28;20480;-77
2023/07/23 02:46:04;;;;;;;5.57;5.10;;;19.90;99.90;;;;;;4936920;28;20496;-78
2023/07/23 02:48:32;;;;;;;5.93;5.47;;;19.90;99.90;;;;;;4936788;28;20469;-78
2023/07/23 02:50:59;;;;;;;6.60;5.90;;;19.80;99.90;;;;;;4936536;28;20464;-81
2023/07/23 02:53:26;;;;;;;6.37;5.87;;;19.80;99.90;;;;;;4936873;28;20832;-80
2023/07/23 02:55:54;;;;;;;8.10;7.40;;;19.80;99.90;;;;;;4936429;28;20481;-77
2023/07/23 02:58:21;;;;;;;8.03;7.33;;;19.80;99.90;;;;;;4936720;28;20551;-80
2023/07/23 03:00:48;;;;;;;7.23;6.63;;;19.70;99.90;;;;;;4935889;28;20566;-78
2023/07/23 03:03:15;;;;;;;7.40;6.60;;;19.70;99.90;;;;;;4936789;28;20527;-78
2023/07/23 03:05:46;;;;;;;7.53;6.83;;;19.60;99.90;;;;;;4935747;28;20482;-79
2023/07/23 03:08:13;;;;;;;7.30;6.60;;;19.60;99.90;;;;;;4936621;28;20473;-78
2023/07/23 03:10:42;;;;;;;6.40;5.90;;;19.60;99.90;;;;;;4936124;28;20531;-76
2023/07/23 03:13:09;;;;;;;6.87;6.27;;;19.60;99.90;;;;;;4936315;28;20473;-75
2023/07/23 03:15:36;;;;;;;6.60;5.77;;;19.50;99.90;;;;;;4936406;28;20797;-77
2023/07/23 03:18:03;;;;;;;8.00;7.20;;;19.50;99.90;;;;;;4936209;28;20475;-80
2023/07/23 03:20:30;;;;;;;8.47;7.67;;;19.50;99.90;;;;;;4935831;28;20959;-77
2023/07/23 03:22:58;;;;;;;7.13;6.53;;;19.40;99.90;;;;;;4935594;28;20539;-77
2023/07/23 03:25:26;;;;;;;6.93;6.23;;;19.40;99.90;;;;;;4936406;28;20843;-80
2023/07/23 03:27:53;;;;;;;7.30;6.70;;;19.40;99.90;;;;;;4936075;28;20468;-77
2023/07/23 03:30:20;;;;;;;9.20;7.20;;;19.40;99.90;;;;;;4936177;28;21055;-77
2023/07/23 03:32:47;;;;;;;8.57;7.77;;;19.30;99.90;;;;;;4935995;28;20540;-77
2023/07/23 03:35:14;;;;;;;8.23;7.37;;;19.30;99.90;;;;;;4935913;28;20508;-77
2023/07/23 03:37:41;;;;;;;7.77;7.07;;;19.30;99.90;;;;;;4935720;28;20994;-80
2023/07/23 03:40:10;;;;;;;7.10;6.50;;;19.30;99.90;;;;;;4939051;28;20544;-80
2023/07/23 03:42:36;;;;;;;7.53;6.90;;;19.30;99.90;;;;;;4939711;28;20496;-77
2023/07/23 03:45:04;;;;;;;8.90;6.23;;;19.20;99.90;;;;;;4939560;28;20530;-80
2023/07/23 03:47:31;;;;;;;10.27;7.43;;;19.20;99.90;;;;;;4939957;28;20559;-80
2023/07/23 03:49:58;;;;;;;8.20;7.50;;;19.20;99.90;;;;;;4939524;28;20978;-80
2023/07/23 03:52:25;;;;;;;7.67;6.90;;;19.20;99.90;;;;;;4939605;28;20473;-77
2023/07/23 03:54:52;;;;;;;8.30;7.50;;;19.20;99.90;;;;;;4939647;28;20477;-78
2023/07/23 03:57:21;;;;;;;7.80;7.20;;;19.20;99.90;;;;;;4940011;28;20469;-80
2023/07/23 03:59:48;;;;;;;7.50;6.90;;;19.20;99.90;;;;;;4939400;28;20535;-77
2023/07/23 04:02:15;;;;;;;8.10;7.40;;;19.20;99.90;;;;;;4940226;28;20548;-77
2023/07/23 04:04:42;;;;;;;7.23;6.60;;;19.20;99.90;;;;;;4939010;28;20484;-80
2023/07/23 04:07:09;;;;;;;7.37;6.77;;;19.20;99.90;;;;;;4939940;28;20480;-77
2023/07/23 04:09:39;;;;;;;8.63;7.93;;;19.20;99.90;;;;;;4939612;28;20971;-77
2023/07/23 04:12:06;;;;;;;8.23;7.43;;;19.20;99.90;;;;;;4939130;28;20949;-80
2023/07/23 04:14:42;;;;;;;8.77;7.90;;;19.20;99.90;;;;;;4938872;28;20508;-77
2023/07/23 04:17:09;;;;;;;8.50;7.63;;;19.10;99.90;;;;;;4939389;28;20464;-80
2023/07/23 04:19:36;;;;;;;8.23;7.53;;;19.20;99.90;;;;;;4939155;28;20823;-77
2023/07/23 04:22:03;;;;;;;11.33;8.00;;;19.10;99.90;;;;;;4939099;28;20464;-77
2023/07/23 04:24:30;;;;;;;8.37;7.67;;;19.10;99.90;;;;;;4939017;28;20507;-80
2023/07/23 04:26:57;;;;;;;8.77;8.07;;;19.20;99.90;;;;;;4938728;28;20472;-81
2023/07/23 04:29:24;;;;;;;9.83;8.93;;;19.20;99.90;;;;;;4939569;28;20552;-77
2023/07/23 04:31:52;;;;;;;9.30;8.40;;;19.10;99.90;;;;;;4938667;28;20477;-76
2023/07/23 04:34:19;;;;;;;9.07;8.23;;;19.10;99.90;;;;;;4938957;28;20539;-77
2023/07/23 04:36:46;;;;;;;9.20;8.30;;;19.10;99.90;;;;;;4939252;28;20525;-77
2023/07/23 04:39:13;;;;;;;9.23;8.33;;;19.10;99.90;;;;;;4938773;28;20844;-80
2023/07/23 04:41:40;;;;;;;10.00;9.00;;;19.20;99.90;;;;;;4939245;28;20563;-80
2023/07/23 04:44:07;;;;;;;9.57;8.57;;;19.20;99.90;;;;;;4938659;28;20480;-80
2023/07/23 04:46:34;;;;;;;8.67;7.80;;;19.20;99.90;;;;;;4938631;28;20483;-80
2023/07/23 04:49:02;;;;;;;8.00;7.20;;;19.20;99.90;;;;;;4938644;28;20559;-80
2023/07/23 04:51:29;;;;;;;8.20;7.50;;;19.20;99.90;;;;;;4938607;28;20508;-76
2023/07/23 04:53:56;;;;;;;8.10;7.40;;;19.20;99.90;;;;;;4938352;28;20548;-76
2023/07/23 04:56:22;;;;;;;9.30;8.43;;;19.20;99.90;;;;;;4938908;28;20472;-76
2023/07/23 04:58:49;;;;;;;8.47;7.70;;;19.20;99.90;;;;;;4938794;28;20500;-76
2023/07/23 05:01:16;;;;;;;9.07;8.03;;;19.20;99.90;;;;;;4930580;28;20555;-76
2023/07/23 05:03:43;;;;;;;8.47;7.77;;;19.20;99.90;;;;;;4938043;28;20508;-76
2023/07/23 05:06:11;;;;;;;9.43;8.53;;;19.20;99.90;;;;;;4938118;28;20480;-79
2023/07/23 05:08:38;;;;;;;9.37;7.37;;;19.20;99.90;;;;;;4938852;28;20476;-80
2023/07/23 05:11:06;;;;;;;8.30;7.60;;;19.20;99.90;;;;;;4937906;28;20568;-79
2023/07/23 05:13:35;;;;;;;7.80;7.20;;;19.30;99.90;;;;;;4938109;28;20555;-77
2023/07/23 05:16:03;;;;;;;8.17;7.47;;;19.30;99.90;;;;;;4937971;28;20472;-76
2023/07/23 05:18:30;;;;;;;9.60;8.17;;;19.30;99.90;;;;;;4938626;28;20469;-76
2023/07/23 05:20:57;;;;;;;8.27;7.20;;;19.40;99.90;;;;;;4937857;28;21050;-79
2023/07/23 05:23:25;;;;;;;7.70;7.00;;;19.40;99.90;;;;;;4938118;28;20477;-77
2023/07/23 05:25:52;;;;;;;7.37;6.67;;;19.40;99.90;;;;;;4938673;28;20809;-76
2023/07/23 05:28:21;;;;;;;9.33;8.43;;;19.40;99.90;;;;;;4937929;28;20496;-79
2023/07/23 05:30:48;;;;;;;8.13;7.50;;;19.50;99.90;;;;;;4930079;28;20549;-76
2023/07/23 05:33:15;;;;;;;8.33;7.53;;;19.50;99.90;;;;;;4937920;28;20479;-80
2023/07/23 05:35:41;;;;;;;8.50;7.70;;;19.50;99.90;;;;;;4938133;28;20995;-80
2023/07/23 05:38:08;;;;;;;8.33;7.53;;;19.50;99.90;;;;;;4936809;28;20479;-76
2023/07/23 05:40:36;;;;;;;8.80;8.00;;;19.50;99.90;;;;;;4938107;28;20469;-80
2023/07/23 05:43:08;;;;;;;9.50;8.60;;;19.50;99.90;;;;;;4937131;28;20469;-80
2023/07/23 05:45:37;;;;;;;9.90;9.00;;;19.50;99.90;;;;;;4937076;28;20971;-77
2023/07/23 05:48:05;;;;;;;7.90;7.20;;;19.50;99.90;;;;;;4937077;28;20552;-77
2023/07/23 05:50:32;;;;;;;8.40;7.70;;;19.50;99.90;;;;;;4937526;28;20484;-77
2023/07/23 05:53:01;;;;;;;7.97;7.27;;;19.50;99.90;;;;;;4937572;28;20881;-79
2023/07/23 05:55:28;;;;;;;9.57;8.67;;;19.60;99.90;;;;;;4937643;28;20468;-80
2023/07/23 05:57:56;;;;;;;7.77;6.97;;;19.60;99.90;;;;;;4937698;28;20544;-77
2023/07/23 06:00:23;;;;;;;8.67;7.97;;;19.70;99.90;;;;;;4930636;28;20486;-76
2023/07/23 06:02:50;;;;;;;8.47;7.67;;;19.60;99.90;;;;;;4948978;28;20853;-76
2023/07/23 06:05:17;;;;;;;8.03;7.30;;;19.70;99.90;;;;;;4936804;28;20547;-76
2023/07/23 06:07:43;;;;;;;8.30;7.47;;;19.80;99.90;;;;;;4935776;28;20547;-78
2023/07/23 06:10:11;;;;;;;7.77;7.10;;;19.80;99.90;;;;;;4936384;28;20499;-77
2023/07/23 06:12:38;;;;;;;8.10;7.37;;;19.90;99.90;;;;;;4937374;28;20966;-77
2023/07/23 06:15:09;;;;;;;8.13;7.33;;;19.90;99.90;;;;;;4936748;28;20508;-77
2023/07/23 06:17:36;;;;;;;9.90;7.20;;;20.00;99.90;;;;;;4937254;28;20547;-80
2023/07/23 06:20:03;;;;;;;8.20;7.40;;;20.00;99.90;;;;;;4937530;28;20505;-81
2023/07/23 06:22:30;;;;;;;7.57;6.90;;;20.10;99.90;;;;;;4936663;28;20556;-81
2023/07/23 06:24:57;;;;;;;8.47;7.70;;;20.20;99.90;;;;;;4937370;28;20508;-77
2023/07/23 06:27:24;;;;;;;8.67;7.90;;;20.30;99.90;;;;;;4936551;28;21037;-77
2023/07/23 06:29:51;;;;;;;6.10;5.60;;;20.40;99.90;;;;;;4937181;28;20555;-77
2023/07/23 06:32:19;;;;;;;7.37;6.67;;;20.50;99.90;;;;;;4936557;28;20556;-80
2023/07/23 06:34:46;;;;;;;8.20;6.50;;;20.70;99.90;;;;;;4937136;28;20489;-77
2023/07/23 06:37:13;;;;;;;7.80;7.00;;;20.70;99.90;;;;;;4936789;28;20504;-77
2023/07/23 06:39:40;;;;;;;7.30;6.70;;;20.80;99.90;;;;;;4936871;28;20551;-80
2023/07/23 06:42:07;;;;;;;7.80;7.10;;;20.90;99.90;;;;;;4937057;28;21037;-81
2023/07/23 06:44:34;;;;;;;6.60;6.00;;;20.90;99.90;;;;;;4936435;28;20499;-80
2023/07/23 06:47:01;;;;;;;7.03;6.43;;;21.00;99.90;;;;;;4935992;28;20515;-80
2023/07/23 06:49:31;;;;;;;7.43;6.83;;;21.00;99.90;;;;;;4935826;28;20561;-77
2023/07/23 06:51:58;;;;;;;6.43;5.83;;;21.00;99.90;;;;;;4936758;28;20489;-77
2023/07/23 06:54:25;;;;;;;6.17;5.57;;;21.10;99.90;;;;;;4936060;28;20484;-80
2023/07/23 06:56:52;;;;;;;6.87;6.27;;;21.10;99.90;;;;;;4936826;28;20595;-80
2023/07/23 06:59:20;;;;;;;6.67;5.97;;;21.20;99.90;;;;;;4936078;28;20476;-77
2023/07/23 07:01:47;;;;;;;6.97;6.37;;;21.40;99.90;;;;;;4936578;28;20531;-80
2023/07/23 07:04:14;;;;;;;7.60;5.53;;;21.50;99.90;;;;;;4935804;28;20485;-76
2023/07/23 07:06:42;;;;;;;5.40;4.83;;;21.70;99.90;;;;;;4936847;28;20476;-80
2023/07/23 07:09:09;;;;;;;6.47;5.87;;;22.00;99.90;;;;;;4936000;28;20487;-76
2023/07/23 07:11:36;;;;;;;6.93;5.57;;;22.20;99.90;;;;;;4935724;28;20477;-79
2023/07/23 07:14:04;;;;;;;5.67;5.27;;;22.30;99.90;;;;;;4936993;28;20488;-77
2023/07/23 07:16:31;;;;;;;6.50;5.93;;;22.40;99.90;;;;;;4936086;28;20468;-76
2023/07/23 07:18:58;;;;;;;5.97;5.47;;;22.60;99.90;;;;;;4932886;28;20498;-77
2023/07/23 07:21:25;;;;;;;6.53;5.97;;;22.70;99.90;;;;;;4945286;28;20551;-77
2023/07/23 07:23:53;;;;;;;5.67;5.17;;;22.80;99.90;;;;;;4936073;28;20512;-77
2023/07/23 07:26:20;;;;;;;5.70;5.20;;;22.80;99.90;;;;;;4935679;28;20478;-79
2023/07/23 07:28:47;;;;;;;6.80;6.20;;;22.90;99.90;;;;;;4935785;28;20533;-79
2023/07/23 07:31:15;;;;;;;5.80;5.30;;;23.00;99.90;;;;;;4936273;28;20472;-77
2023/07/23 07:33:43;;;;;;;5.77;5.23;;;23.10;99.90;;;;;;4935643;28;20464;-77
2023/07/23 07:36:12;;;;;;;6.60;5.33;;;23.10;99.90;;;;;;4936217;28;20472;-76
2023/07/23 07:38:39;;;;;;;9.30;6.40;;;23.20;99.90;;;;;;4935608;28;20479;-77
2023/07/23 07:41:07;;;;;;;6.10;5.33;;;23.20;99.90;;;;;;4936422;28;20512;-76
2023/07/23 07:43:34;;;;;;;6.77;6.17;;;23.20;99.90;;;;;;4935511;28;20489;-80
2023/07/23 07:46:03;;;;;;;5.97;5.47;;;23.10;99.90;;;;;;4935649;28;20887;-77
2023/07/23 07:48:30;;;;;;;6.17;5.50;;;23.20;99.90;;;;;;4935784;28;20505;-79
2023/07/23 07:51:06;;;;;;;6.47;5.97;;;23.10;99.90;;;;;;4936032;28;20547;-76
2023/07/23 07:53:35;;;;;;;5.87;5.27;;;23.20;99.90;;;;;;4934974;28;20463;-77
2023/07/23 07:56:03;;;;;;;5.70;5.20;;;23.20;99.90;;;;;;4936083;28;20844;-77
2023/07/23 07:58:32;;;;;;;8.20;5.40;;;23.20;99.90;;;;;;4935162;28;20543;-76
2023/07/23 08:01:01;;;;;;;5.90;4.53;;;23.20;99.90;;;;;;4935680;28;20857;-77
2023/07/23 08:03:31;;;;;;;6.00;5.40;;;23.20;99.90;;;;;;4935559;28;20474;-80
2023/07/23 08:05:59;;;;;;;5.30;4.90;;;23.20;99.90;;;;;;4936095;28;20882;-79
2023/07/23 08:08:27;;;;;;;5.87;5.37;;;23.10;99.90;;;;;;4935691;28;21053;-80
2023/07/23 08:10:56;;;;;;;5.53;5.00;;;23.10;99.90;;;;;;4935929;28;20844;-78
2023/07/23 08:13:24;;;;;;;4.87;4.47;;;23.00;99.90;;;;;;4935380;28;20509;-77
2023/07/23 08:15:53;;;;;;;5.43;5.03;;;23.00;99.90;;;;;;4935512;28;20501;-77
2023/07/23 08:18:20;;;;;;;4.70;4.30;;;22.90;99.90;;;;;;4936034;28;20540;-80
2023/07/23 08:20:48;;;;;;;5.47;4.97;;;22.90;99.90;;;;;;4935466;28;20465;-80
2023/07/23 08:23:16;;;;;;;6.93;5.10;;;22.80;99.90;;;;;;4935721;28;20491;-78
2023/07/23 08:25:46;;;;;;;5.73;5.23;;;22.80;99.90;;;;;;4937141;28;20480;-78
2023/07/23 08:28:19;;;;;;;5.63;5.13;;;22.80;99.90;;;;;;4939288;28;20559;-77
2023/07/23 08:30:46;;;;;;;4.00;3.70;;;22.80;99.90;;;;;;4939059;28;20479;-78
2023/07/23 08:33:18;;;;;;;7.43;5.67;;;22.90;99.90;;;;;;4939073;28;20564;-78
2023/07/23 08:35:46;;;;;;;5.23;4.83;;;22.90;99.90;;;;;;4938820;28;20577;-80
2023/07/23 08:38:13;;;;;;;5.40;5.00;;;22.90;99.90;;;;;;4939471;28;20484;-79
2023/07/23 08:40:44;;;;;;;5.23;4.83;;;22.90;99.90;;;;;;4938826;28;20500;-80
2023/07/23 08:43:54;;;;;;;5.20;4.77;;;22.90;99.90;;;;;;4938800;28;20822;-77
2023/07/23 08:46:23;;;;;;;5.77;5.17;;;22.90;99.90;;;;;;4938874;28;20943;-80
2023/07/23 08:49:06;;;;;;;5.03;4.63;;;22.90;99.90;;;;;;4938943;28;20479;-81
2023/07/23 08:51:41;;;;;;;5.13;4.53;;;22.90;99.90;;;;;;4930693;28;20488;-80
2023/07/23 08:54:09;;;;;;;4.70;4.30;;;23.00;99.90;;;;;;4938340;28;20507;-80
2023/07/23 08:56:38;;;;;;;6.27;5.20;;;23.00;99.90;;;;;;4938602;28;20938;-76
2023/07/23 08:59:09;;;;;;;5.50;5.00;;;23.10;99.90;;;;;;4938917;28;20811;-76
2023/07/23 09:01:39;;;;;;;5.20;4.70;;;23.20;99.90;;;;;;4938548;28;20461;-75
2023/07/23 09:04:12;;;;;;;7.03;6.07;;;23.30;99.90;;;;;;4938565;28;20954;-79
2023/07/23 09:06:42;;;;;;;6.20;5.17;;;23.40;99.90;;;;;;4938266;28;20496;-79
2023/07/23 09:09:13;;;;;;;5.40;4.90;;;23.40;99.90;;;;;;4938462;28;20473;-77
2023/07/23 09:11:42;;;;;;;5.03;4.63;;;23.50;99.90;;;;;;4937972;28;20543;-77
2023/07/23 09:14:14;;;;;;;5.20;4.77;;;23.60;99.90;;;;;;4938633;28;20485;-80
2023/07/23 09:16:43;;;;;;;4.87;4.37;;;23.80;99.90;;;;;;4938166;28;20523;-78
2023/07/23 09:19:12;;;;;;;4.53;4.13;;;23.80;99.90;;;;;;4938267;28;21031;-77
2023/07/23 09:21:43;;;;;;;5.00;4.60;;;23.90;99.20;;;;;;4937837;28;20488;-81
2023/07/23 09:24:14;;;;;;;8.30;5.27;;;24.00;99.00;;;;;;4938092;28;20483;-80
2023/07/23 09:26:42;;;;;;;5.47;4.93;;;24.10;99.80;;;;;;4937459;28;20887;-80
2023/07/23 09:29:11;;;;;;;7.63;5.00;;;24.10;98.50;;;;;;4938557;28;20507;-81
2023/07/23 09:31:42;;;;;;;5.67;5.07;;;24.20;98.00;;;;;;4937680;28;20501;-79
2023/07/23 09:34:11;;;;;;;4.90;4.50;;;24.20;97.70;;;;;;4937763;28;20481;-76
2023/07/23 09:36:38;;;;;;;5.00;4.60;;;24.30;97.50;;;;;;4936631;28;20487;-79
2023/07/23 09:39:06;;;;;;;9.23;5.13;;;24.30;97.30;;;;;;4937850;28;20560;-77
2023/07/23 09:41:35;;;;;;;4.97;4.57;;;24.30;97.10;;;;;;4937579;28;20511;-82
2023/07/23 09:44:03;;;;;;;4.80;4.50;;;24.30;97.20;;;;;;4933604;28;20483;-80
2023/07/23 09:46:31;;;;;;;5.73;5.20;;;24.40;97.80;;;;;;4946827;28;20481;-78
2023/07/23 09:48:58;;;;;;;5.77;5.13;;;24.50;97.40;;;;;;4937954;28;20519;-78
2023/07/23 09:51:27;;;;;;;5.80;5.30;;;24.60;97.40;;;;;;4938180;28;20962;-77
2023/07/23 09:53:54;;;;;;;4.60;4.30;;;24.70;97.50;;;;;;4937036;28;20875;-76
2023/07/23 09:56:22;;;;;;;5.23;4.73;;;24.80;97.10;;;;;;4937541;28;20543;-81
2023/07/23 09:58:51;;;;;;;5.63;5.23;;;24.80;96.30;;;;;;4936987;28;20477;-80
2023/07/23 10:01:19;;;;;;;4.93;4.50;;;25.00;96.60;;;;;;4937577;28;20484;-80
2023/07/23 10:03:47;;;;;;;4.77;4.37;;;25.10;96.90;;;;;;4936875;28;20473;-78
2023/07/23 10:09:23;;;;;;;6.03;4.73;;;25.30;95.70;;;;;;4934479;28;20892;-82
2023/07/23 10:11:50;;;;;;;5.83;5.37;;;25.30;94.40;;;;;;4943781;28;20464;-78
2023/07/23 10:14:18;;;;;;;4.13;3.73;;;25.30;93.40;;;;;;4937136;28;20488;-78
2023/07/23 10:17:07;;;;;;;4.70;4.30;;;25.40;93.60;;;;;;4936332;28;20473;-81
2023/07/23 10:19:35;;;;;;;5.67;5.17;;;25.50;93.90;;;;;;4938554;28;20473;-77
2023/07/23 10:22:03;;;;;;;5.60;5.20;;;25.60;93.80;;;;;;4947437;28;20449;-76
2023/07/23 10:24:38;;;;;;;5.33;4.93;;;25.60;93.50;;;;;;4940642;28;20469;-79
2023/07/23 10:27:16;;;;;;;5.60;5.10;;;25.70;92.70;;;;;;4941068;28;20496;-77
2023/07/23 10:30:16;;;;;;;5.50;5.07;;;25.80;92.70;;;;;;4939257;28;20500;-78
2023/07/23 10:32:43;;;;;;;4.53;4.17;;;25.90;93.10;;;;;;4938685;28;20497;-77
2023/07/23 10:35:10;;;;;;;6.37;4.80;;;25.90;92.20;;;;;;4938228;28;20476;-80
2023/07/23 10:37:39;;;;;;;4.77;4.47;;;25.80;91.90;;;;;;4939915;28;20488;-79
2023/07/23 10:40:07;;;;;;;5.40;4.67;;;25.80;91.20;;;;;;4939568;28;20561;-77
2023/07/23 10:42:39;;;;;;;8.40;5.50;;;25.80;91.20;;;;;;4937889;28;20536;-79
2023/07/23 10:45:30;;;;;;;6.10;5.50;;;25.70;91.20;;;;;;4937955;28;20469;-77
2023/07/23 10:48:00;;;;;;;5.30;4.80;;;25.80;91.30;;;;;;4930125;28;20472;-77
2023/07/23 10:50:30;;;;;;;5.30;4.90;;;25.80;91.70;;;;;;4939373;28;20527;-77
2023/07/23 10:53:03;;;;;;;5.87;5.43;;;26.00;92.10;;;;;;4939171;28;20477;-77
2023/07/23 10:55:37;;;;;;;5.50;5.10;;;26.10;92.20;;;;;;4940628;28;20482;-76
2023/07/23 10:58:10;;;;;;;5.47;4.97;;;26.20;92.20;;;;;;4940975;28;20974;-79
2023/07/23 11:00:43;;;;;;;4.90;4.50;;;26.20;91.70;;;;;;4941670;28;20477;-77
2023/07/23 11:03:12;;;;;;;6.23;5.63;;;26.30;91.60;;;;;;4939771;28;20511;-80
2023/07/23 11:05:42;;;;;;;6.20;5.70;;;26.30;91.30;;;;;;4939928;28;20477;-76
2023/07/23 11:08:18;;;;;;;6.57;6.00;;;26.30;91.30;;;;;;4939137;28;20559;-77
2023/07/23 11:10:54;;;;;;;6.27;5.60;;;26.30;91.10;;;;;;4938011;28;20559;-77
2023/07/23 11:13:26;;;;;;;5.07;4.67;;;26.30;91.10;;;;;;4938020;28;20464;-77
2023/07/23 11:15:58;;;;;;;5.97;4.27;;;26.40;91.10;;;;;;4935844;28;20578;-77
2023/07/23 11:18:25;;;;;;;5.70;5.10;;;26.40;91.30;;;;;;4945414;28;20548;-79
2023/07/23 11:20:56;;;;;;;5.30;4.90;;;26.50;91.20;;;;;;4939292;28;20473;-78
2023/07/23 11:23:28;;;;;;;4.83;4.53;;;26.60;91.50;;;;;;4936400;28;20551;-80
2023/07/23 11:25:55;;;;;;;5.27;4.77;;;26.60;90.90;;;;;;4939680;28;20848;-78
2023/07/23 11:28:23;;;;;;;6.87;5.40;;;26.50;90.30;;;;;;4933603;28;20964;-77
2023/07/23 11:30:55;;;;;;;6.93;5.00;;;26.60;90.50;;;;;;4939877;28;20564;-77
2023/07/23 11:33:22;;;;;;;5.00;4.60;;;26.60;90.10;;;;;;4940024;28;20561;-78
2023/07/23 11:35:50;;;;;;;5.23;4.83;;;26.60;89.00;;;;;;4940359;28;20482;-76
2023/07/23 11:38:17;;;;;;;5.30;4.80;;;26.60;89.90;;;;;;4937311;28;20480;-77
2023/07/23 11:40:57;;;;;;;5.47;4.97;;;26.60;89.70;;;;;;4939434;28;20507;-77
2023/07/23 11:43:24;;;;;;;6.53;5.10;;;26.70;89.70;;;;;;4939393;28;20477;-80
2023/07/23 11:45:51;;;;;;;5.90;4.80;;;26.70;89.60;;;;;;4938099;28;20753;-78
2023/07/23 11:48:20;;;;;;;5.67;5.27;;;26.70;90.10;;;;;;4936073;28;20477;-80
2023/07/23 11:50:48;;;;;;;4.90;4.00;;;26.80;90.10;;;;;;4936063;28;20519;-80
2023/07/23 11:53:31;;;;;;;5.37;4.97;;;26.80;90.00;;;;;;4936274;28;20882;-79
2023/07/23 11:56:05;;;;;;;4.67;4.27;;;26.90;89.60;;;;;;4936917;28;20488;-80
2023/07/23 11:58:33;;;;;;;4.77;4.37;;;26.90;88.50;;;;;;4935287;28;20979;-77
2023/07/23 12:01:00;;;;;;;4.50;4.10;;;26.90;86.00;;;;;;4938645;28;20513;-76
2023/07/23 12:03:27;;;;;;;5.27;4.33;;;27.00;84.10;;;;;;4939602;28;20482;-76
2023/07/23 12:05:55;;;;;;;4.60;4.20;;;27.00;84.70;;;;;;4940698;28;20977;-79
2023/07/23 12:08:22;;;;;;;4.43;4.07;;;27.10;85.30;;;;;;4940948;28;20473;-80
2023/07/23 12:10:49;;;;;;;4.53;4.20;;;27.20;85.10;;;;;;4941338;28;20492;-79
2023/07/23 12:13:22;;;;;;;4.73;4.23;;;27.20;83.40;;;;;;4940512;28;20568;-80
2023/07/23 12:15:54;;;;;;;5.63;5.00;;;27.30;83.00;;;;;;4943094;28;20472;-80
2023/07/23 12:18:22;;;;;;;5.20;4.50;;;27.30;82.20;;;;;;4939775;28;20484;-78
2023/07/23 12:20:49;;;;;;;5.67;4.90;;;27.30;81.20;;;;;;4939998;28;20474;-77
2023/07/23 12:23:16;;;;;;;4.80;4.30;;;27.40;82.90;;;;;;4940114;28;20494;-78
2023/07/23 12:25:43;;;;;;;4.47;4.17;;;27.40;82.50;;;;;;4939667;28;20477;-77
2023/07/23 12:28:10;;;;;;;5.07;4.67;;;27.40;82.00;;;;;;4939354;28;20499;-77
2023/07/23 12:30:38;;;;;;;6.30;5.30;;;27.50;82.00;;;;;;4939375;28;20477;-77
2023/07/23 12:33:05;;;;;;;5.50;5.00;;;27.50;82.20;;;;;;4939697;28;20988;-77
2023/07/23 12:35:32;;;;;;;5.60;5.00;;;27.50;82.10;;;;;;4936978;28;20558;-77
2023/07/23 12:37:59;;;;;;;6.57;4.40;;;27.50;81.90;;;;;;4939348;28;20574;-77
2023/07/23 12:40:26;;;;;;;5.70;5.20;;;27.50;81.50;;;;;;4938925;28;20475;-77
2023/07/23 12:42:53;;;;;;;7.23;4.77;;;27.50;81.30;;;;;;4939168;28;20509;-77
2023/07/23 12:45:20;;;;;;;5.20;4.60;;;27.50;80.20;;;;;;4939154;28;20487;-81
2023/07/23 12:47:48;;;;;;;4.63;4.33;;;27.50;79.40;;;;;;4939162;28;20550;-81
2023/07/23 12:50:15;;;;;;;4.50;4.10;;;27.50;79.80;;;;;;4939882;28;20550;-78
2023/07/23 12:52:42;;;;;;;4.33;4.00;;;27.50;80.00;;;;;;4938746;28;20878;-81
2023/07/23 12:55:09;;;;;;;4.23;3.93;;;27.50;79.70;;;;;;4939034;28;20873;-77